Time;durP1;ratioP1;P1;durP2;ratioP2;P2;SDS_P1;SDS_P2;PMS_P1;PMS_P2;Temp;Humidity;BMP_temperature;BMP_pressure;BME280_temperature;BME280_humidity;BME280_pressure;Samples;Min_cycle;Max_cycle;Signal;HPM_P1;HPM_P2
2022/08/15 00:01:42;;;;;;;;;;;26.20;34.00;;;;;;1532869;76;1506;-70
2022/08/15 00:03:45;;;;;;;;;;;26.20;33.90;;;;;;1538063;76;1139;-70
2022/08/15 00:05:47;;;;;;;;;;;26.20;34.00;;;;;;1532095;76;706;-70
2022/08/15 00:07:49;;;;;;;;;;;26.30;33.90;;;;;;1531765;76;701;-70
2022/08/15 00:09:51;;;;;;;;;;;26.20;33.90;;;;;;1532850;76;714;-71
2022/08/15 00:11:54;;;;;;;;;;;26.30;33.90;;;;;;1531562;77;753;-71
2022/08/15 00:13:58;;;;;;;;;;;26.30;34.00;;;;;;1531998;76;1153;-70
2022/08/15 00:15:59;;;;;;;;;;;26.30;34.00;;;;;;1527373;76;1410;-69
2022/08/15 00:18:02;;;;;;;;;;;26.30;34.00;;;;;;1532657;76;754;-70
2022/08/15 00:20:04;;;;;;;;;;;26.30;33.90;;;;;;1530302;76;1908;-69
2022/08/15 00:22:07;;;;;;;;;;;26.30;33.90;;;;;;1523855;76;679;-73
2022/08/15 00:24:10;;;;;;;;;;;26.30;33.90;;;;;;1524208;76;1083;-70
2022/08/15 00:26:13;;;;;;;;;;;26.30;34.00;;;;;;1532226;76;744;-70
2022/08/15 00:28:15;;;;;;;;;;;26.30;33.90;;;;;;1530593;76;659;-70
2022/08/15 00:30:16;;;;;;;;;;;26.30;33.90;;;;;;1527530;76;1561;-70
2022/08/15 00:32:23;;;;;;;;;;;26.30;33.90;;;;;;1533797;76;638;-71
2022/08/15 00:34:25;;;;;;;;;;;26.30;33.90;;;;;;1537125;76;742;-70
2022/08/15 00:36:30;;;;;;;;;;;26.30;34.00;;;;;;1532252;76;761;-71
2022/08/15 00:38:31;;;;;;;;;;;26.30;34.00;;;;;;1532516;76;1646;-70
2022/08/15 00:41:39;;;;;;;;;;;26.30;34.10;;;;;;1531466;76;1920;-70
2022/08/15 00:42:39;;;;;;;;;;;26.20;34.10;;;;;;1532301;76;1553;-71
2022/08/15 00:44:45;;;;;;;;;;;26.20;34.20;;;;;;1532536;76;1569;-71
2022/08/15 00:46:51;;;;;;;;;;;26.20;34.20;;;;;;1537294;76;669;-71
2022/08/15 00:48:55;;;;;;;;;;;26.20;34.20;;;;;;1533808;76;679;-70
2022/08/15 00:50:57;;;;;;;;;;;26.20;34.30;;;;;;1532248;76;750;-71
2022/08/15 00:52:59;;;;;;;;;;;26.20;34.30;;;;;;1528616;76;1183;-71
2022/08/15 00:55:04;;;;;;;;;;;26.10;34.40;;;;;;1529890;76;718;-69
2022/08/15 00:57:06;;;;;;;;;;;26.20;34.40;;;;;;1531260;76;788;-70
2022/08/15 00:59:09;;;;;;;;;;;26.20;34.40;;;;;;1529441;76;1940;-69
2022/08/15 01:01:11;;;;;;;;;;;26.20;34.40;;;;;;1533764;76;659;-70
2022/08/15 01:03:14;;;;;;;;;;;26.10;34.50;;;;;;1533302;76;1176;-69
2022/08/15 01:05:16;;;;;;;;;;;26.10;34.60;;;;;;1535668;76;793;-70
2022/08/15 01:07:19;;;;;;;;;;;26.10;34.60;;;;;;1526100;76;814;-69
2022/08/15 01:09:20;;;;;;;;;;;26.10;34.60;;;;;;1530978;76;677;-70
2022/08/15 01:11:24;;;;;;;;;;;26.10;34.60;;;;;;1532980;76;671;-70
2022/08/15 01:13:26;;;;;;;;;;;26.10;34.60;;;;;;1534817;76;1562;-71
2022/08/15 01:15:27;;;;;;;;;;;26.10;34.70;;;;;;1540795;76;625;-70
2022/08/15 01:17:29;;;;;;;;;;;26.10;34.70;;;;;;1530083;76;819;-71
2022/08/15 01:19:36;;;;;;;;;;;26.10;34.80;;;;;;1534367;76;1944;-71
2022/08/15 01:21:39;;;;;;;;;;;26.10;34.80;;;;;;1530229;76;750;-71
2022/08/15 01:24:01;;;;;;;;;;;26.10;34.90;;;;;;1532272;76;1146;-70
2022/08/15 01:26:05;;;;;;;;;;;26.10;35.00;;;;;;1526050;76;1559;-69
2022/08/15 01:28:08;;;;;;;;;;;26.00;35.00;;;;;;1532197;76;819;-70
2022/08/15 01:30:11;;;;;;;;;;;26.00;35.20;;;;;;1521308;76;676;-69
2022/08/15 01:32:14;;;;;;;;;;;26.00;35.20;;;;;;1525681;76;703;-69
2022/08/15 01:34:16;;;;;;;;;;;26.10;35.20;;;;;;1530624;76;1107;-68
2022/08/15 01:36:18;;;;;;;;;;;26.00;35.20;;;;;;1531472;76;773;-69
2022/08/15 01:38:22;;;;;;;;;;;26.00;35.20;;;;;;1529758;76;669;-69
2022/08/15 01:40:32;;;;;;;;;;;26.10;35.20;;;;;;1529801;76;1940;-69
2022/08/15 01:42:35;;;;;;;;;;;26.00;35.20;;;;;;1526932;76;1934;-68
2022/08/15 01:44:44;;;;;;;;;;;26.00;35.20;;;;;;1530569;76;703;-69
2022/08/15 01:46:53;;;;;;;;;;;26.00;35.30;;;;;;1533139;76;686;-70
2022/08/15 01:48:57;;;;;;;;;;;26.00;35.40;;;;;;1528982;76;2157;-70
2022/08/15 01:51:00;;;;;;;;;;;26.00;35.50;;;;;;1527655;76;1910;-69
2022/08/15 01:53:07;;;;;;;;;;;26.00;35.50;;;;;;1531882;76;1194;-69
2022/08/15 01:55:09;;;;;;;;;;;26.10;35.30;;;;;;1533276;76;1574;-68
2022/08/15 01:57:11;;;;;;;;;;;26.10;35.50;;;;;;1528159;76;739;-69
2022/08/15 01:59:14;;;;;;;;;;;26.00;35.50;;;;;;1519287;76;658;-68
2022/08/15 02:01:17;;;;;;;;;;;26.20;35.50;;;;;;1513588;76;1888;-69
2022/08/15 02:03:19;;;;;;;;;;;26.10;35.50;;;;;;1516978;76;1160;-68
2022/08/15 02:05:21;;;;;;;;;;;26.10;35.50;;;;;;1516364;76;760;-69
2022/08/15 02:07:25;;;;;;;;;;;26.10;35.60;;;;;;1520776;76;1284;-68
2022/08/15 02:09:27;;;;;;;;;;;26.20;35.70;;;;;;1522527;76;1591;-71
2022/08/15 02:11:30;;;;;;;;;;;26.10;35.70;;;;;;1513021;76;657;-68
2022/08/15 02:13:31;;;;;;;;;;;26.10;35.70;;;;;;1516214;76;1148;-68
2022/08/15 02:15:33;;;;;;;;;;;26.10;35.70;;;;;;1521738;76;708;-68
2022/08/15 02:17:35;;;;;;;;;;;26.10;35.70;;;;;;1518038;76;679;-70
2022/08/15 02:19:37;;;;;;;;;;;26.20;35.70;;;;;;1517712;76;1922;-68
2022/08/15 02:21:40;;;;;;;;;;;26.10;35.70;;;;;;1517747;76;650;-69
2022/08/15 02:23:42;;;;;;;;;;;26.20;35.70;;;;;;1520132;76;1599;-69
2022/08/15 02:25:44;;;;;;;;;;;26.10;35.70;;;;;;1515086;76;774;-69
2022/08/15 02:27:45;;;;;;;;;;;26.20;35.70;;;;;;1519184;76;753;-69
2022/08/15 02:29:47;;;;;;;;;;;26.20;35.70;;;;;;1517017;76;722;-69
2022/08/15 02:31:51;;;;;;;;;;;26.20;35.70;;;;;;1526390;76;803;-68
2022/08/15 02:33:54;;;;;;;;;;;26.20;35.60;;;;;;1519953;72;224964;-54
2022/08/15 02:35:56;;;;;;;;;;;26.20;35.70;;;;;;1521721;76;778;-59
2022/08/15 02:38:04;;;;;;;;;;;26.30;35.70;;;;;;1514198;76;1581;-59
2022/08/15 02:40:06;;;;;;;;;;;26.30;35.60;;;;;;1517111;76;1928;-60
2022/08/15 02:42:08;;;;;;;;;;;26.30;35.60;;;;;;1512914;76;655;-58
2022/08/15 02:44:11;;;;;;;;;;;26.30;35.60;;;;;;1520266;76;1184;-59
2022/08/15 02:46:16;;;;;;;;;;;26.30;35.60;;;;;;1522047;76;623;-58
2022/08/15 02:48:18;;;;;;;;;;;26.30;35.60;;;;;;1511572;76;1496;-59
2022/08/15 02:50:22;;;;;;;;;;;26.30;35.70;;;;;;1522375;76;853;-55
2022/08/15 02:52:23;;;;;;;;;;;26.20;35.70;;;;;;1513450;76;1883;-59
2022/08/15 02:54:26;;;;;;;;;;;26.20;35.60;;;;;;1512572;76;621;-59
2022/08/15 02:56:28;;;;;;;;;;;26.20;35.70;;;;;;1516241;76;773;-58
2022/08/15 02:58:30;;;;;;;;;;;26.20;35.70;;;;;;1520520;76;716;-59
2022/08/15 03:00:32;;;;;;;;;;;26.20;35.70;;;;;;1521450;76;1930;-59
2022/08/15 03:02:35;;;;;;;;;;;26.20;35.70;;;;;;1512159;76;1177;-59
2022/08/15 03:04:38;;;;;;;;;;;26.20;35.70;;;;;;1515154;76;2123;-58
2022/08/15 03:06:42;;;;;;;;;;;26.20;35.70;;;;;;1516232;76;680;-59
2022/08/15 03:08:45;;;;;;;;;;;26.20;35.70;;;;;;1523739;76;646;-59
2022/08/15 03:10:47;;;;;;;;;;;26.20;35.80;;;;;;1508040;76;739;-56
2022/08/15 03:12:54;;;;;;;;;;;26.20;35.70;;;;;;1525168;76;1157;-58
2022/08/15 03:14:56;;;;;;;;;;;26.20;36.00;;;;;;1523496;76;1114;-57
2022/08/15 03:16:59;;;;;;;;;;;26.20;35.80;;;;;;1523106;76;710;-56
2022/08/15 03:19:01;;;;;;;;;;;26.30;35.70;;;;;;1519933;76;1451;-59
2022/08/15 03:21:04;;;;;;;;;;;26.30;35.70;;;;;;1521068;76;1908;-59
2022/08/15 03:23:07;;;;;;;;;;;26.20;35.70;;;;;;1521527;76;1098;-56
2022/08/15 03:25:09;;;;;;;;;;;26.30;35.60;;;;;;1523295;76;704;-57
2022/08/15 03:27:11;;;;;;;;;;;26.30;35.70;;;;;;1523373;76;916;-58
2022/08/15 03:29:16;;;;;;;;;;;26.20;35.70;;;;;;1519140;76;628;-59
2022/08/15 03:31:18;;;;;;;;;;;26.30;35.70;;;;;;1519765;76;1836;-58
2022/08/15 03:33:19;;;;;;;;;;;26.20;35.70;;;;;;1520923;76;1596;-59
2022/08/15 03:35:22;;;;;;;;;;;26.30;35.70;;;;;;1521291;76;791;-58
2022/08/15 03:37:24;;;;;;;;;;;26.20;35.70;;;;;;1521735;76;670;-59
2022/08/15 03:39:26;;;;;;;;;;;26.20;35.80;;;;;;1522717;76;753;-58
2022/08/15 03:41:28;;;;;;;;;;;26.20;35.80;;;;;;1523688;77;1913;-57
2022/08/15 03:43:30;;;;;;;;;;;26.20;35.80;;;;;;1523443;76;1152;-58
2022/08/15 03:45:32;;;;;;;;;;;26.20;35.80;;;;;;1520778;76;728;-57
2022/08/15 03:47:34;;;;;;;;;;;26.20;35.90;;;;;;1520931;76;1554;-56
2022/08/15 03:49:36;;;;;;;;;;;26.20;35.80;;;;;;1521337;76;655;-58
2022/08/15 03:51:40;;;;;;;;;;;26.20;35.90;;;;;;1522332;76;673;-57
2022/08/15 03:53:44;;;;;;;;;;;26.20;36.00;;;;;;1522345;76;1089;-55
2022/08/15 03:55:46;;;;;;;;;;;26.20;35.90;;;;;;1519569;76;743;-59
2022/08/15 03:57:48;;;;;;;;;;;26.20;36.00;;;;;;1527280;76;665;-59
2022/08/15 03:59:51;;;;;;;;;;;26.20;36.00;;;;;;1524827;76;713;-59
2022/08/15 04:01:52;;;;;;;;;;;26.20;36.00;;;;;;1517858;76;1906;-58
2022/08/15 04:03:54;;;;;;;;;;;26.10;36.00;;;;;;1521930;76;1146;-58
2022/08/15 04:05:58;;;;;;;;;;;26.20;36.00;;;;;;1522525;76;772;-59
2022/08/15 04:08:00;;;;;;;;;;;26.20;36.00;;;;;;1520060;76;2082;-58
2022/08/15 04:10:04;;;;;;;;;;;26.20;36.10;;;;;;1522899;76;756;-57
2022/08/15 04:12:08;;;;;;;;;;;26.20;36.10;;;;;;1523879;76;764;-58
2022/08/15 04:14:10;;;;;;;;;;;26.20;36.10;;;;;;1519777;76;1683;-57
2022/08/15 04:16:12;;;;;;;;;;;26.20;36.20;;;;;;1519654;76;1562;-56
2022/08/15 04:18:14;;;;;;;;;;;26.20;36.20;;;;;;1524325;76;755;-57
2022/08/15 04:20:16;;;;;;;;;;;26.20;36.20;;;;;;1524263;76;1932;-59
2022/08/15 04:22:20;;;;;;;;;;;26.20;36.30;;;;;;1523520;76;1141;-59
2022/08/15 04:24:22;;;;;;;;;;;26.20;36.30;;;;;;1523443;76;1725;-60
2022/08/15 04:26:24;;;;;;;;;;;26.20;36.30;;;;;;1521564;76;745;-59
2022/08/15 04:28:29;;;;;;;;;;;26.20;36.30;;;;;;1520671;76;771;-59
2022/08/15 04:30:32;;;;;;;;;;;26.20;36.30;;;;;;1520230;76;1623;-59
2022/08/15 04:32:34;;;;;;;;;;;26.20;36.30;;;;;;1520393;76;1688;-59
2022/08/15 04:34:38;;;;;;;;;;;26.20;36.40;;;;;;1521277;76;815;-59
2022/08/15 04:36:39;;;;;;;;;;;26.10;36.40;;;;;;1522486;76;1544;-59
2022/08/15 04:38:42;;;;;;;;;;;26.20;36.50;;;;;;1521512;76;762;-59
2022/08/15 04:40:44;;;;;;;;;;;26.20;36.50;;;;;;1520957;76;1915;-59
2022/08/15 04:42:47;;;;;;;;;;;26.20;36.50;;;;;;1524202;76;1161;-59
2022/08/15 04:44:49;;;;;;;;;;;26.00;36.50;;;;;;1522069;76;1568;-59
2022/08/15 04:46:51;;;;;;;;;;;26.20;36.50;;;;;;1523173;76;723;-59
2022/08/15 04:48:53;;;;;;;;;;;26.20;36.50;;;;;;1517869;76;767;-59
2022/08/15 04:50:56;;;;;;;;;;;26.20;36.50;;;;;;1524054;76;645;-58
2022/08/15 04:52:58;;;;;;;;;;;26.20;36.60;;;;;;1523069;76;1123;-58
2022/08/15 04:55:00;;;;;;;;;;;26.20;36.70;;;;;;1519554;76;657;-58
2022/08/15 04:57:02;;;;;;;;;;;26.20;36.60;;;;;;1516263;76;1483;-59
2022/08/15 04:59:04;;;;;;;;;;;26.20;36.60;;;;;;1521821;76;690;-58
2022/08/15 05:01:07;;;;;;;;;;;26.20;36.50;;;;;;1521370;77;1945;-59
2022/08/15 05:03:16;;;;;;;;;;;26.20;36.50;;;;;;1524793;76;1177;-59
2022/08/15 05:05:18;;;;;;;;;;;26.20;36.50;;;;;;1517016;76;785;-59
2022/08/15 05:07:21;;;;;;;;;;;26.20;36.60;;;;;;1518085;76;771;-58
2022/08/15 05:09:23;;;;;;;;;;;26.30;36.70;;;;;;1529209;76;759;-59
2022/08/15 05:11:25;;;;;;;;;;;26.20;36.70;;;;;;1520929;76;1556;-59
2022/08/15 05:13:31;;;;;;;;;;;26.20;36.60;;;;;;1524803;76;1157;-59
2022/08/15 05:15:33;;;;;;;;;;;26.20;36.70;;;;;;1522224;76;702;-59
2022/08/15 05:17:35;;;;;;;;;;;26.20;36.70;;;;;;1519990;76;736;-59
2022/08/15 05:19:36;;;;;;;;;;;26.20;36.80;;;;;;1521438;76;605;-60
2022/08/15 05:21:39;;;;;;;;;;;26.20;36.70;;;;;;1523968;76;1941;-59
2022/08/15 05:23:41;;;;;;;;;;;26.10;36.80;;;;;;1522468;76;1138;-59
2022/08/15 05:25:44;;;;;;;;;;;26.20;36.80;;;;;;1519408;76;1591;-60
2022/08/15 05:27:47;;;;;;;;;;;26.20;36.80;;;;;;1518052;76;694;-59
2022/08/15 05:29:51;;;;;;;;;;;26.20;36.70;;;;;;1530558;76;786;-59
2022/08/15 05:31:53;;;;;;;;;;;26.20;36.70;;;;;;1533325;76;689;-59
2022/08/15 05:33:55;;;;;;;;;;;26.20;36.70;;;;;;1521612;76;1123;-59
2022/08/15 05:35:57;;;;;;;;;;;26.20;36.70;;;;;;1536098;76;808;-59
2022/08/15 05:38:00;;;;;;;;;;;26.20;36.80;;;;;;1527695;76;707;-58
2022/08/15 05:40:03;;;;;;;;;;;26.20;36.80;;;;;;1526414;76;1524;-59
2022/08/15 05:42:23;;;;;;;;;;;26.20;36.80;;;;;;1532802;76;1928;-59
2022/08/15 05:44:29;;;;;;;;;;;26.20;36.70;;;;;;1528931;76;644;-60
2022/08/15 05:46:39;;;;;;;;;;;26.10;36.80;;;;;;1527189;76;859;-59
2022/08/15 05:48:41;;;;;;;;;;;26.10;36.80;;;;;;1540889;76;736;-59
2022/08/15 05:50:56;;;;;;;;;;;26.20;36.80;;;;;;1516462;76;661;-59
2022/08/15 05:53:00;;;;;;;;;;;26.10;36.80;;;;;;1530961;76;1875;-59
2022/08/15 05:55:03;;;;;;;;;;;26.20;36.80;;;;;;1532557;76;1554;-59
2022/08/15 05:57:07;;;;;;;;;;;26.20;36.80;;;;;;1528266;76;1552;-60
2022/08/15 05:59:10;;;;;;;;;;;26.20;36.80;;;;;;1528212;76;1959;-59
2022/08/15 06:01:16;;;;;;;;;;;26.20;36.80;;;;;;1533338;76;1948;-59
2022/08/15 06:03:22;;;;;;;;;;;26.10;36.70;;;;;;1534921;76;1170;-59
2022/08/15 06:05:28;;;;;;;;;;;26.10;36.80;;;;;;1531298;76;1356;-59
2022/08/15 06:07:30;;;;;;;;;;;26.20;36.80;;;;;;1529832;76;1661;-59
2022/08/15 06:09:34;;;;;;;;;;;26.20;36.80;;;;;;1537671;76;626;-59
2022/08/15 06:11:40;;;;;;;;;;;26.20;36.80;;;;;;1531523;76;1882;-59
2022/08/15 06:13:42;;;;;;;;;;;26.10;36.80;;;;;;1531732;76;1145;-59
2022/08/15 06:16:04;;;;;;;;;;;26.10;36.80;;;;;;1534809;76;686;-59
2022/08/15 06:18:07;;;;;;;;;;;26.20;36.80;;;;;;1528921;76;1412;-59
2022/08/15 06:20:10;;;;;;;;;;;26.10;36.90;;;;;;1531177;76;758;-59
2022/08/15 06:22:22;;;;;;;;;;;26.20;36.80;;;;;;1530486;76;1941;-60
2022/08/15 06:24:42;;;;;;;;;;;26.20;36.80;;;;;;1536788;76;762;-59
2022/08/15 06:26:49;;;;;;;;;;;26.10;36.90;;;;;;1525024;76;1907;-59
2022/08/15 06:28:58;;;;;;;;;;;26.20;36.90;;;;;;1531767;76;708;-62
2022/08/15 06:31:02;;;;;;;;;;;26.10;37.10;;;;;;1532696;76;778;-60
2022/08/15 06:33:06;;;;;;;;;;;26.10;37.20;;;;;;1527299;76;1930;-61
2022/08/15 06:35:11;;;;;;;;;;;26.10;37.40;;;;;;1529543;76;1665;-62
2022/08/15 06:37:17;;;;;;;;;;;26.00;37.60;;;;;;1532784;76;1586;-60
2022/08/15 06:39:27;;;;;;;;;;;26.10;37.60;;;;;;1535124;76;1129;-61
2022/08/15 06:41:31;;;;;;;;;;;26.00;37.60;;;;;;1534531;76;1975;-61
2022/08/15 06:43:34;;;;;;;;;;;26.10;37.80;;;;;;1534867;76;1149;-61
2022/08/15 06:45:37;;;;;;;;;;;26.10;37.80;;;;;;1534397;76;633;-61
2022/08/15 06:47:39;;;;;;;;;;;26.10;38.10;;;;;;1533718;76;656;-61
2022/08/15 06:49:41;;;;;;;;;;;26.00;38.10;;;;;;1533363;76;1558;-60
2022/08/15 06:51:43;;;;;;;;;;;26.00;38.20;;;;;;1530092;76;763;-61
2022/08/15 06:53:52;;;;;;;;;;;26.00;38.30;;;;;;1529651;76;1127;-61
2022/08/15 06:55:56;;;;;;;;;;;26.00;38.40;;;;;;1530806;76;764;-61
2022/08/15 06:57:59;;;;;;;;;;;26.00;38.40;;;;;;1531822;76;1865;-61
2022/08/15 07:00:03;;;;;;;;;;;26.00;38.50;;;;;;1527459;76;1800;-59
2022/08/15 07:02:09;;;;;;;;;;;25.90;38.10;;;;;;1522608;76;1932;-59
2022/08/15 07:04:30;;;;;;;;;;;25.90;38.20;;;;;;1526828;76;1821;-59
2022/08/15 07:06:33;;;;;;;;;;;25.90;38.20;;;;;;1532727;76;808;-59
2022/08/15 07:08:41;;;;;;;;;;;25.90;38.20;;;;;;1531066;76;747;-60
2022/08/15 07:10:57;;;;;;;;;;;25.90;38.30;;;;;;1532525;76;755;-58
2022/08/15 07:13:04;;;;;;;;;;;25.90;38.40;;;;;;1529640;76;1141;-59
2022/08/15 07:15:13;;;;;;;;;;;25.90;38.30;;;;;;1527653;76;812;-59
2022/08/15 07:17:19;;;;;;;;;;;25.90;38.30;;;;;;1531445;76;711;-59
2022/08/15 07:19:21;;;;;;;;;;;26.00;38.80;;;;;;1531973;76;1834;-59
2022/08/15 07:21:25;;;;;;;;;;;26.00;38.90;;;;;;1528997;76;1953;-59
2022/08/15 07:23:27;;;;;;;;;;;26.00;38.90;;;;;;1529146;76;1138;-59
2022/08/15 07:25:32;;;;;;;;;;;26.00;38.90;;;;;;1531555;76;699;-58
2022/08/15 07:27:33;;;;;;;;;;;25.90;38.30;;;;;;1528780;76;1665;-59
2022/08/15 07:29:40;;;;;;;;;;;25.90;38.30;;;;;;1530698;76;803;-59
2022/08/15 07:31:43;;;;;;;;;;;25.90;38.40;;;;;;1513488;76;1547;-58
2022/08/15 07:33:46;;;;;;;;;;;25.90;38.40;;;;;;1516355;76;1129;-59
2022/08/15 07:35:48;;;;;;;;;;;26.00;38.90;;;;;;1526920;76;810;-59
2022/08/15 07:37:54;;;;;;;;;;;25.90;38.50;;;;;;1495973;77;983;-59
2022/08/15 07:39:57;;;;;;;;;;;26.00;39.10;;;;;;1524922;76;1638;-60
2022/08/15 07:41:59;;;;;;;;;;;26.00;39.00;;;;;;1531474;76;1937;-59
2022/08/15 07:44:03;;;;;;;;;;;26.00;39.10;;;;;;1516838;76;1687;-59
2022/08/15 07:46:11;;;;;;;;;;;26.00;39.10;;;;;;1528872;76;1651;-59
2022/08/15 07:48:18;;;;;;;;;;;26.00;39.00;;;;;;1521009;76;1592;-58
2022/08/15 07:50:21;;;;;;;;;;;26.00;39.10;;;;;;1534091;76;1948;-59
2022/08/15 07:52:24;;;;;;;;;;;26.00;39.00;;;;;;1538188;75;1692;-59
2022/08/15 07:54:28;;;;;;;;;;;26.00;39.00;;;;;;1537661;76;688;-59
2022/08/15 07:56:31;;;;;;;;;;;26.00;39.00;;;;;;1516964;76;1153;-59
2022/08/15 07:58:33;;;;;;;;;;;26.00;39.00;;;;;;1531340;76;730;-59
2022/08/15 08:00:35;;;;;;;;;;;26.00;39.00;;;;;;1541453;76;1569;-59
2022/08/15 08:02:40;;;;;;;;;;;26.00;38.90;;;;;;1535009;76;1955;-59
2022/08/15 08:04:43;;;;;;;;;;;26.00;39.00;;;;;;1545730;76;1925;-59
2022/08/15 08:06:51;;;;;;;;;;;26.00;38.90;;;;;;1532050;76;673;-59
2022/08/15 08:08:54;;;;;;;;;;;26.00;39.00;;;;;;1523676;76;697;-58
2022/08/15 08:10:58;;;;;;;;;;;26.00;38.90;;;;;;1530381;76;1990;-57
2022/08/15 08:13:10;;;;;;;;;;;26.00;38.90;;;;;;1533153;76;1174;-59
2022/08/15 08:15:14;;;;;;;;;;;26.00;38.90;;;;;;1535422;76;1955;-59
2022/08/15 08:17:18;;;;;;;;;;;26.00;38.90;;;;;;1534753;76;748;-58
2022/08/15 08:19:21;;;;;;;;;;;26.00;38.90;;;;;;1533555;76;709;-59
2022/08/15 08:21:28;;;;;;;;;;;26.00;39.00;;;;;;1532846;76;794;-58
2022/08/15 08:23:31;;;;;;;;;;;26.00;38.90;;;;;;1535984;76;2044;-59
2022/08/15 08:25:38;;;;;;;;;;;26.00;38.90;;;;;;1534830;76;674;-59
2022/08/15 08:27:45;;;;;;;;;;;26.00;38.90;;;;;;1528697;76;778;-57
2022/08/15 08:29:51;;;;;;;;;;;26.10;38.90;;;;;;1506149;76;1489;-59
2022/08/15 08:32:13;;;;;;;;;;;26.10;38.90;;;;;;1530932;76;1857;-58
2022/08/15 08:34:16;;;;;;;;;;;26.00;38.80;;;;;;1540007;72;3068;-56
2022/08/15 08:36:22;;;;;;;;;;;26.10;38.90;;;;;;1514460;76;694;-56
2022/08/15 08:38:43;;;;;;;;;;;26.10;38.90;;;;;;1520934;76;1596;-58
2022/08/15 08:43:19;;;;;;;;;;;26.10;38.90;;;;;;1527300;75;1904;-55
2022/08/15 08:45:23;;;;;;;;;;;26.10;38.90;;;;;;1518103;76;1914;-55
2022/08/15 08:47:27;;;;;;;;;;;26.20;38.80;;;;;;1526781;76;603;-57
2022/08/15 08:49:33;;;;;;;;;;;26.20;38.80;;;;;;1528508;76;1059;-55
2022/08/15 08:51:39;;;;;;;;;;;26.20;38.80;;;;;;1529932;76;2398;-57
2022/08/15 08:53:53;;;;;;;;;;;26.10;38.80;;;;;;1530204;76;1192;-53
2022/08/15 08:55:55;;;;;;;;;;;26.10;38.80;;;;;;1516459;76;1682;-57
2022/08/15 08:58:03;;;;;;;;;;;26.10;38.80;;;;;;1531864;76;1590;-54
2022/08/15 09:00:12;;;;;;;;;;;26.10;38.70;;;;;;1516028;76;686;-57
2022/08/15 09:02:18;;;;;;;;;;;26.10;38.70;;;;;;1521633;76;1928;-53
2022/08/15 09:04:22;;;;;;;;;;;26.10;38.70;;;;;;1525798;76;728;-54
2022/08/15 09:06:26;;;;;;;;;;;26.20;38.70;;;;;;1519609;76;1807;-56
2022/08/15 09:08:29;;;;;;;;;;;26.10;38.70;;;;;;1527928;76;1536;-56
2022/08/15 09:10:32;;;;;;;;;;;26.20;38.70;;;;;;1527946;76;1461;-56
2022/08/15 09:14:59;;;;;;;;;;;26.20;38.60;;;;;;1525945;76;1715;-55
2022/08/15 09:17:09;;;;;;;;;;;26.20;38.50;;;;;;1532066;76;720;-59
2022/08/15 09:19:21;;;;;;;;;;;26.20;38.60;;;;;;1536873;76;761;-54
2022/08/15 09:21:23;;;;;;;;;;;26.10;38.60;;;;;;1531763;76;699;-55
2022/08/15 09:23:25;;;;;;;;;;;26.20;38.60;;;;;;1537571;76;1939;-54
2022/08/15 09:25:27;;;;;;;;;;;26.20;38.60;;;;;;1539405;76;1248;-54
2022/08/15 09:27:31;;;;;;;;;;;26.20;38.60;;;;;;1544134;76;654;-56
2022/08/15 09:29:33;;;;;;;;;;;26.20;38.60;;;;;;1536258;76;1698;-56
2022/08/15 09:31:36;;;;;;;;;;;26.20;38.50;;;;;;1535909;76;701;-55
2022/08/15 09:33:46;;;;;;;;;;;26.20;38.50;;;;;;1545592;76;1269;-56
2022/08/15 09:35:52;;;;;;;;;;;26.20;38.50;;;;;;1536351;76;1753;-56
2022/08/15 09:38:02;;;;;;;;;;;26.20;38.40;;;;;;1537677;76;1771;-53
2022/08/15 09:40:10;;;;;;;;;;;26.30;38.50;;;;;;1530208;76;1704;-54
2022/08/15 09:42:18;;;;;;;;;;;26.30;38.40;;;;;;1534570;76;2224;-58
2022/08/15 09:44:27;;;;;;;;;;;26.30;38.40;;;;;;1533605;76;1647;-54
2022/08/15 09:46:37;;;;;;;;;;;26.30;38.40;;;;;;1530402;76;654;-56
2022/08/15 09:48:47;;;;;;;;;;;26.30;38.40;;;;;;1529751;76;712;-56
2022/08/15 09:50:50;;;;;;;;;;;26.30;38.40;;;;;;1534797;76;650;-56
2022/08/15 09:52:54;;;;;;;;;;;26.20;38.40;;;;;;1533034;76;1495;-54
2022/08/15 09:54:58;;;;;;;;;;;26.20;38.60;;;;;;1529246;76;1569;-54
2022/08/15 09:57:13;;;;;;;;;;;26.30;38.50;;;;;;1533364;76;600;-54
2022/08/15 09:59:17;;;;;;;;;;;26.30;38.50;;;;;;1471696;76;1114;-55
2022/08/15 10:01:23;;;;;;;;;;;26.30;38.50;;;;;;1505854;77;636;-55
2022/08/15 10:03:27;;;;;;;;;;;26.30;38.50;;;;;;1509254;76;1929;-56
2022/08/15 10:05:30;;;;;;;;;;;26.30;38.60;;;;;;1525930;76;1665;-57
2022/08/15 10:07:34;;;;;;;;;;;26.40;38.60;;;;;;1524186;76;1367;-56
2022/08/15 10:09:37;;;;;;;;;;;26.30;38.50;;;;;;1530741;76;1801;-57
2022/08/15 10:11:40;;;;;;;;;;;26.40;38.40;;;;;;1527514;76;690;-55
2022/08/15 10:13:45;;;;;;;;;;;26.40;38.40;;;;;;1533622;76;1197;-55
2022/08/15 10:15:47;;;;;;;;;;;26.30;38.40;;;;;;1534896;76;740;-57
2022/08/15 10:17:49;;;;;;;;;;;26.30;38.50;;;;;;1529551;76;690;-57
2022/08/15 10:19:51;;;;;;;;;;;26.30;38.50;;;;;;1527216;76;1029;-57
2022/08/15 10:21:59;;;;;;;;;;;26.30;38.60;;;;;;1533325;76;1168;-55
2022/08/15 10:23:57;;;;;;;;;;;26.30;38.70;;;;;;1527586;75;1929;-57
2022/08/15 10:26:16;;;;;;;;;;;26.30;38.80;;;;;;1538116;76;656;-57
2022/08/15 10:28:20;;;;;;;;;;;26.20;38.90;;;;;;1538407;76;1673;-57
2022/08/15 10:30:24;;;;;;;;;;;26.20;38.80;;;;;;1540083;76;716;-56
2022/08/15 10:32:28;;;;;;;;;;;26.30;38.80;;;;;;1531481;76;1121;-53
2022/08/15 10:34:41;;;;;;;;;;;26.20;38.80;;;;;;1529847;76;1665;-54
2022/08/15 10:36:43;;;;;;;;;;;26.30;38.80;;;;;;1535648;76;586;-56
2022/08/15 10:38:52;;;;;;;;;;;26.30;38.70;;;;;;1516302;77;1182;-54
2022/08/15 10:40:59;;;;;;;;;;;26.30;38.60;;;;;;1528665;76;1523;-54
2022/08/15 10:43:02;;;;;;;;;;;26.40;38.60;;;;;;1539497;75;1931;-53
2022/08/15 10:45:12;;;;;;;;;;;26.30;38.70;;;;;;1526836;76;768;-53
2022/08/15 10:47:32;;;;;;;;;;;26.20;38.70;;;;;;1539986;76;597;-58
2022/08/15 10:49:52;;;;;;;;;;;26.20;38.70;;;;;;1535431;76;1608;-58
2022/08/15 10:52:08;;;;;;;;;;;26.20;38.70;;;;;;1534245;76;681;-58
2022/08/15 10:54:28;;;;;;;;;;;26.20;38.80;;;;;;1531293;76;1085;-56
2022/08/15 10:56:32;;;;;;;;;;;26.10;38.80;;;;;;1532898;76;706;-56
2022/08/15 10:58:33;;;;;;;;;;;26.20;38.70;;;;;;1537802;76;1911;-56
2022/08/15 11:00:37;;;;;;;;;;;26.20;38.70;;;;;;1539893;76;681;-56
2022/08/15 11:02:41;;;;;;;;;;;26.20;38.60;;;;;;1534626;76;1932;-57
2022/08/15 11:04:43;;;;;;;;;;;26.20;38.60;;;;;;1536220;76;705;-55
2022/08/15 11:06:50;;;;;;;;;;;26.20;38.60;;;;;;1546905;76;676;-56
2022/08/15 11:08:50;;;;;;;;;;;26.10;38.70;;;;;;1534746;76;1589;-56
2022/08/15 11:10:51;;;;;;;;;;;26.20;38.60;;;;;;1529076;76;774;-56
2022/08/15 11:12:55;;;;;;;;;;;26.20;38.60;;;;;;1532386;75;1204;-57
2022/08/15 11:14:59;;;;;;;;;;;26.20;38.60;;;;;;1530552;76;702;-56
2022/08/15 11:17:01;;;;;;;;;;;26.20;38.60;;;;;;1529650;76;1605;-56
2022/08/15 11:19:16;;;;;;;;;;;26.30;38.40;;;;;;1532500;76;654;-56
2022/08/15 11:21:19;;;;;;;;;;;26.30;38.40;;;;;;1537432;76;1686;-56
2022/08/15 11:23:39;;;;;;;;;;;26.30;38.30;;;;;;1532078;75;1947;-56
2022/08/15 11:25:41;;;;;;;;;;;26.30;38.30;;;;;;1537426;76;608;-55
2022/08/15 11:27:46;;;;;;;;;;;26.30;38.20;;;;;;1531566;76;666;-57
2022/08/15 11:29:47;;;;;;;;;;;26.30;38.30;;;;;;1534445;76;1504;-56
2022/08/15 11:31:50;;;;;;;;;;;26.30;38.30;;;;;;1532106;76;1543;-56
2022/08/15 11:33:54;;;;;;;;;;;26.40;38.20;;;;;;1536225;76;1130;-58
2022/08/15 11:36:06;;;;;;;;;;;26.30;38.20;;;;;;1533360;76;1604;-58
2022/08/15 11:38:08;;;;;;;;;;;26.30;38.20;;;;;;1528224;76;1002;-59
2022/08/15 11:40:11;;;;;;;;;;;26.30;38.20;;;;;;1532636;76;640;-59
2022/08/15 11:42:20;;;;;;;;;;;26.30;38.20;;;;;;1525098;76;1401;-56
2022/08/15 11:44:23;;;;;;;;;;;26.30;38.10;;;;;;1532982;76;1896;-55
2022/08/15 11:46:26;;;;;;;;;;;26.40;38.10;;;;;;1535149;76;1353;-55
2022/08/15 11:48:28;;;;;;;;;;;26.40;38.10;;;;;;1522677;76;670;-57
2022/08/15 11:50:35;;;;;;;;;;;26.40;38.00;;;;;;1533663;76;670;-54
2022/08/15 11:52:41;;;;;;;;;;;26.40;37.80;;;;;;1531310;76;1101;-56
2022/08/15 11:54:43;;;;;;;;;;;26.40;37.80;;;;;;1528936;76;978;-58
2022/08/15 11:56:49;;;;;;;;;;;26.30;37.90;;;;;;1531670;76;743;-57
2022/08/15 11:58:51;;;;;;;;;;;26.40;38.00;;;;;;1534547;76;680;-54
2022/08/15 12:00:57;;;;;;;;;;;26.50;37.80;;;;;;1536551;76;1096;-58
2022/08/15 12:02:57;;;;;;;;;;;26.50;37.80;;;;;;1535303;76;1932;-57
2022/08/15 12:05:01;;;;;;;;;;;26.50;37.70;;;;;;1534940;76;664;-56
2022/08/15 12:07:16;;;;;;;;;;;26.50;37.60;;;;;;1528562;76;1268;-55
2022/08/15 12:09:22;;;;;;;;;;;26.50;37.70;;;;;;1529661;76;700;-57
2022/08/15 12:11:24;;;;;;;;;;;26.50;37.80;;;;;;1541760;76;781;-56
2022/08/15 12:13:26;;;;;;;;;;;26.60;37.70;;;;;;1537166;75;1543;-56
2022/08/15 12:15:33;;;;;;;;;;;26.60;37.60;;;;;;1538556;76;692;-55
2022/08/15 12:17:34;;;;;;;;;;;26.50;38.10;;;;;;1539986;76;715;-57
2022/08/15 12:19:38;;;;;;;;;;;26.50;38.10;;;;;;1545718;76;661;-55
2022/08/15 12:21:47;;;;;;;;;;;26.50;38.00;;;;;;1528956;76;745;-56
2022/08/15 12:23:54;;;;;;;;;;;26.50;38.60;;;;;;1536867;75;1944;-56
2022/08/15 12:25:58;;;;;;;;;;;26.50;38.20;;;;;;1530455;76;1567;-55